createdAt,value
2024-03-07T00:01:51.502Z,93.89
2024-03-07T00:04:23.397Z,93.46
2024-03-07T00:06:55.216Z,93.45
2024-03-07T00:09:27.081Z,93.01
2024-03-07T00:11:59.121Z,93.43
2024-03-07T00:14:31.375Z,93.39
2024-03-07T00:17:04.030Z,93.41
2024-03-07T00:19:36.173Z,93.00
2024-03-07T00:22:08.158Z,93.06
2024-03-07T00:24:39.927Z,92.91
2024-03-07T00:27:12.427Z,92.84
2024-03-07T00:29:44.968Z,92.86
2024-03-07T00:32:16.921Z,92.86
2024-03-07T00:34:49.113Z,92.29
2024-03-07T00:37:21.117Z,91.84
2024-03-07T00:39:53.080Z,91.33
2024-03-07T00:42:25.504Z,90.55
2024-03-07T00:44:58.599Z,90.80
2024-03-07T00:47:30.597Z,90.81
2024-03-07T00:50:02.723Z,90.77
2024-03-07T00:52:34.609Z,90.40
2024-03-07T00:55:10.570Z,90.15
2024-03-07T00:57:42.586Z,89.52
2024-03-07T01:00:18.617Z,89.45
2024-03-07T01:02:50.782Z,89.41
2024-03-07T01:05:23.120Z,88.78
2024-03-07T01:07:56.735Z,88.59
2024-03-07T01:10:29.626Z,89.19
2024-03-07T01:13:03.369Z,89.08
2024-03-07T01:15:36.940Z,88.88
2024-03-07T01:18:09.284Z,89.66
2024-03-07T01:20:39.879Z,89.78
2024-03-07T01:23:12.156Z,90.24
2024-03-07T01:25:44.238Z,90.15
2024-03-07T01:28:18.303Z,90.19
2024-03-07T01:30:50.208Z,90.32
2024-03-07T01:33:22.443Z,89.85
2024-03-07T01:35:54.429Z,90.21
2024-03-07T01:38:26.597Z,90.13
2024-03-07T01:40:58.485Z,90.38
2024-03-07T01:43:32.372Z,90.61
2024-03-07T01:46:06.027Z,90.67
2024-03-07T01:48:39.624Z,90.95
2024-03-07T01:51:12.010Z,91.36
2024-03-07T01:53:44.074Z,91.20
2024-03-07T01:56:16.136Z,91.22
2024-03-07T01:58:51.795Z,91.32
2024-03-07T02:01:23.843Z,91.65
2024-03-07T02:03:56.062Z,92.00
2024-03-07T02:06:30.322Z,91.50
2024-03-07T02:09:03.729Z,91.98
2024-03-07T02:11:35.932Z,92.22
2024-03-07T02:14:08.061Z,91.89
2024-03-07T02:16:40.683Z,91.10
2024-03-07T02:19:13.063Z,91.24
2024-03-07T02:21:45.312Z,92.04
2024-03-07T02:24:17.477Z,92.05
2024-03-07T02:26:49.331Z,91.52
2024-03-07T02:29:21.724Z,91.91
2024-03-07T02:31:53.705Z,91.40
2024-03-07T02:34:28.195Z,92.06
2024-03-07T02:37:00.348Z,91.43
2024-03-07T02:39:32.262Z,90.93
2024-03-07T02:42:04.288Z,90.71
2024-03-07T02:44:36.224Z,90.74
2024-03-07T02:47:08.857Z,91.36
2024-03-07T02:49:39.162Z,91.44
2024-03-07T02:52:11.653Z,91.68
2024-03-07T02:54:43.838Z,91.74
2024-03-07T02:57:15.740Z,91.71
2024-03-07T02:59:47.922Z,91.35
2024-03-07T03:02:19.961Z,91.90
2024-03-07T03:04:52.211Z,92.22
2024-03-07T03:07:24.747Z,92.17
2024-03-07T03:09:56.595Z,92.86
2024-03-07T03:12:28.396Z,93.20
2024-03-07T03:15:00.304Z,94.27
2024-03-07T03:17:33.451Z,93.87
2024-03-07T03:20:16.080Z,93.97
2024-03-07T03:25:24.397Z,93.69
2024-03-07T03:27:56.453Z,93.76
2024-03-07T03:30:28.427Z,93.94
2024-03-07T03:33:00.766Z,94.77
2024-03-07T03:35:32.806Z,94.90
2024-03-07T03:38:05.331Z,94.51
2024-03-07T03:40:38.055Z,94.34
2024-03-07T03:43:10.061Z,93.93
2024-03-07T03:45:41.926Z,94.07
2024-03-07T03:48:14.615Z,94.46
2024-03-07T03:50:48.022Z,94.82
2024-03-07T03:53:20.034Z,95.14
2024-03-07T03:55:52.194Z,94.90
2024-03-07T03:58:24.196Z,94.49
2024-03-07T04:00:56.336Z,94.63
2024-03-07T04:03:28.751Z,94.89
2024-03-07T04:06:00.817Z,94.94
2024-03-07T04:08:33.121Z,94.52
2024-03-07T04:11:06.459Z,94.55
2024-03-07T04:13:38.530Z,95.31
2024-03-07T04:16:10.787Z,96.01
2024-03-07T04:18:44.123Z,96.38
2024-03-07T04:21:17.098Z,97.07
2024-03-07T04:23:49.094Z,97.13
2024-03-07T04:26:21.498Z,96.89
2024-03-07T04:28:53.310Z,97.37
2024-03-07T04:31:25.287Z,97.10
2024-03-07T04:33:57.846Z,97.44
2024-03-07T04:36:30.987Z,97.10
2024-03-07T04:39:05.621Z,96.89
2024-03-07T04:41:37.961Z,96.74
2024-03-07T04:44:09.819Z,97.05
2024-03-07T04:46:45.323Z,97.06
2024-03-07T04:49:17.306Z,96.98
2024-03-07T04:51:49.248Z,96.90
2024-03-07T04:54:21.388Z,97.16
2024-03-07T04:56:54.621Z,97.67
2024-03-07T04:59:26.884Z,97.82
2024-03-07T05:01:59.273Z,97.89
2024-03-07T05:04:31.731Z,97.70
2024-03-07T05:07:04.350Z,97.87
2024-03-07T05:09:35.063Z,97.78
2024-03-07T05:12:07.649Z,98.53
2024-03-07T05:14:38.060Z,98.39
2024-03-07T05:17:10.605Z,98.03
2024-03-07T05:19:43.082Z,97.48
2024-03-07T05:22:17.168Z,97.61
2024-03-07T05:24:51.364Z,97.32
2024-03-07T05:27:23.303Z,97.38
2024-03-07T05:29:56.624Z,97.43
2024-03-07T05:32:30.089Z,97.51
2024-03-07T05:35:02.304Z,97.07
2024-03-07T05:37:34.094Z,96.41
2024-03-07T05:40:08.842Z,96.57
2024-03-07T05:42:40.803Z,96.39
2024-03-07T05:45:16.016Z,96.48
2024-03-07T05:47:48.657Z,96.55
2024-03-07T05:50:21.180Z,96.79
2024-03-07T05:52:53.322Z,97.03
2024-03-07T05:55:25.341Z,96.67
2024-03-07T05:57:57.487Z,96.22
2024-03-07T06:00:29.683Z,96.11
2024-03-07T06:03:01.938Z,95.85
2024-03-07T06:05:34.015Z,95.97
2024-03-07T06:08:08.076Z,96.05
2024-03-07T06:10:42.328Z,96.10
2024-03-07T06:13:16.530Z,95.79
2024-03-07T06:15:49.854Z,95.67
2024-03-07T06:18:22.035Z,95.24
2024-03-07T06:20:53.993Z,95.05
2024-03-07T06:23:25.935Z,94.56
2024-03-07T06:25:59.778Z,94.34
2024-03-07T06:28:31.973Z,93.68
2024-03-07T06:31:08.737Z,93.05
2024-03-07T06:33:40.964Z,92.98
2024-03-07T06:36:13.108Z,92.53
2024-03-07T06:38:45.065Z,92.24
2024-03-07T06:41:17.279Z,91.80
2024-03-07T06:43:50.782Z,91.74
2024-03-07T06:46:23.195Z,91.20
2024-03-07T06:48:55.153Z,91.15
2024-03-07T06:51:27.259Z,91.26
2024-03-07T06:53:59.975Z,90.93
2024-03-07T06:56:32.390Z,90.50
2024-03-07T06:59:05.779Z,90.40
2024-03-07T07:01:38.574Z,90.29
2024-03-07T07:04:10.014Z,89.80
2024-03-07T07:06:44.000Z,90.10
2024-03-07T07:09:20.170Z,90.27
2024-03-07T07:11:52.496Z,89.95
2024-03-07T07:14:24.984Z,89.23
2024-03-07T07:16:57.553Z,88.35
2024-03-07T07:19:29.554Z,87.60
2024-03-07T07:22:01.464Z,87.64
2024-03-07T07:24:35.775Z,87.68
2024-03-07T07:27:09.331Z,87.66
2024-03-07T07:29:41.509Z,87.34
2024-03-07T07:32:13.844Z,86.92
2024-03-07T07:34:45.389Z,86.45
2024-03-07T07:37:17.508Z,86.26
2024-03-07T07:39:49.345Z,85.83
2024-03-07T07:42:21.384Z,85.63
2024-03-07T07:44:53.392Z,85.29
2024-03-07T07:47:25.743Z,84.74
2024-03-07T07:49:57.692Z,84.17
2024-03-07T07:52:30.748Z,83.60
2024-03-07T07:55:02.916Z,83.12
2024-03-07T07:57:34.842Z,83.48
2024-03-07T08:00:10.345Z,83.30
2024-03-07T08:02:44.941Z,83.09
2024-03-07T08:05:19.111Z,83.33
2024-03-07T08:07:51.852Z,82.95
2024-03-07T08:10:24.326Z,82.08
2024-03-07T08:12:56.301Z,81.92
2024-03-07T08:15:29.609Z,81.55
2024-03-07T08:18:02.712Z,80.81
2024-03-07T08:20:34.872Z,81.34
2024-03-07T08:23:07.838Z,81.42
2024-03-07T08:25:40.510Z,80.05
2024-03-07T08:28:13.015Z,78.34
2024-03-07T08:30:45.714Z,77.09
2024-03-07T08:33:17.736Z,76.56
2024-03-07T08:35:51.042Z,75.98
2024-03-07T08:38:22.960Z,76.15
2024-03-07T08:40:55.739Z,75.64
2024-03-07T08:43:28.094Z,74.89
2024-03-07T08:46:00.407Z,74.32
2024-03-07T08:48:32.369Z,72.61
2024-03-07T08:51:04.550Z,73.10
2024-03-07T08:53:37.393Z,73.98
2024-03-07T08:56:09.769Z,73.80
2024-03-07T08:58:41.734Z,72.74
2024-03-07T09:01:13.721Z,71.30
2024-03-07T09:03:45.573Z,69.30
2024-03-07T09:06:17.482Z,68.69
2024-03-07T09:08:49.376Z,69.43
2024-03-07T09:11:23.519Z,70.01
2024-03-07T09:13:55.499Z,68.88
2024-03-07T09:16:27.922Z,67.50
2024-03-07T09:18:59.809Z,67.08
2024-03-07T09:21:31.808Z,67.41
2024-03-07T09:24:04.169Z,68.38
2024-03-07T09:26:36.941Z,68.67
2024-03-07T09:29:07.838Z,66.97
2024-03-07T09:31:41.515Z,67.29
2024-03-07T09:34:14.145Z,66.69
2024-03-07T09:36:44.520Z,66.64
2024-03-07T09:39:16.863Z,66.48
2024-03-07T09:41:48.880Z,66.82
2024-03-07T09:44:28.138Z,67.11
2024-03-07T09:47:06.078Z,66.61
2024-03-07T09:49:37.941Z,66.47
2024-03-07T09:52:12.799Z,65.75
2024-03-07T09:54:45.316Z,64.08
2024-03-07T09:57:18.369Z,64.72
2024-03-07T09:59:51.297Z,65.27
2024-03-07T10:02:24.750Z,65.06
2024-03-07T10:04:58.324Z,63.94
2024-03-07T10:07:30.508Z,63.31
2024-03-07T10:10:11.021Z,62.31
2024-03-07T10:12:43.340Z,63.38
2024-03-07T10:15:18.561Z,62.94
2024-03-07T10:17:51.309Z,62.67
2024-03-07T10:20:23.922Z,62.44
2024-03-07T10:22:56.658Z,60.53
2024-03-07T10:25:30.236Z,60.76
2024-03-07T10:28:05.367Z,60.18
2024-03-07T10:30:45.627Z,59.74
2024-03-07T10:33:17.799Z,60.03
2024-03-07T10:35:51.754Z,58.07
2024-03-07T10:38:23.755Z,58.15
2024-03-07T10:40:57.504Z,57.63
2024-03-07T10:43:31.769Z,57.18
2024-03-07T10:46:10.717Z,57.25
2024-03-07T10:48:44.964Z,56.92
2024-03-07T10:51:28.379Z,57.13
2024-03-07T10:54:09.127Z,55.22
2024-03-07T10:56:55.367Z,54.72
2024-03-07T10:59:29.517Z,55.12
2024-03-07T11:02:13.596Z,54.12
2024-03-07T11:04:46.424Z,54.06
2024-03-07T11:07:19.260Z,53.68
2024-03-07T11:09:53.074Z,53.04
2024-03-07T11:12:29.745Z,53.15
2024-03-07T11:15:02.104Z,52.65
2024-03-07T11:17:35.322Z,52.98
2024-03-07T11:20:27.095Z,52.64
2024-03-07T11:22:59.085Z,53.81
2024-03-07T11:25:31.785Z,53.05
2024-03-07T11:28:04.429Z,52.89
2024-03-07T11:30:36.424Z,52.26
2024-03-07T11:33:13.278Z,51.69
2024-03-07T11:35:54.056Z,52.65
2024-03-07T11:38:35.487Z,53.41
2024-03-07T11:41:09.751Z,53.23
2024-03-07T11:43:43.309Z,50.88
2024-03-07T11:46:18.407Z,50.80
2024-03-07T11:48:50.748Z,50.64
2024-03-07T11:51:26.304Z,50.79
2024-03-07T11:53:59.780Z,50.78
2024-03-07T11:56:32.041Z,50.90
2024-03-07T11:59:05.638Z,50.31
2024-03-07T12:01:38.910Z,50.09
2024-03-07T12:04:16.992Z,50.76
2024-03-07T12:06:55.443Z,51.01
2024-03-07T12:09:27.646Z,49.93
2024-03-07T12:12:00.680Z,49.54
2024-03-07T12:14:35.203Z,49.58
2024-03-07T12:17:07.676Z,49.93
2024-03-07T12:19:40.128Z,49.30
2024-03-07T12:22:14.105Z,47.98
2024-03-07T12:24:48.095Z,48.44
2024-03-07T12:27:21.433Z,48.35
2024-03-07T12:32:27.792Z,48.92
2024-03-07T12:35:00.153Z,49.37
2024-03-07T12:37:36.909Z,48.20
2024-03-07T12:40:20.233Z,48.54
2024-03-07T12:42:55.331Z,49.23
2024-03-07T12:45:29.574Z,49.82
2024-03-07T12:48:06.051Z,49.33
2024-03-07T12:50:39.855Z,49.13
2024-03-07T12:53:13.159Z,47.94
2024-03-07T12:55:45.839Z,48.20
2024-03-07T12:58:16.772Z,48.56
2024-03-07T13:00:48.764Z,49.22
2024-03-07T13:03:20.946Z,49.80
2024-03-07T13:05:53.013Z,50.61
2024-03-07T13:08:27.820Z,50.27
2024-03-07T13:11:01.706Z,50.20
2024-03-07T13:13:35.235Z,50.12
2024-03-07T13:16:07.971Z,49.11
2024-03-07T13:18:40.276Z,49.18
2024-03-07T13:21:13.105Z,48.97
2024-03-07T13:23:45.284Z,47.89
2024-03-07T13:26:25.681Z,47.91
2024-03-07T13:29:01.670Z,48.38
2024-03-07T13:31:34.686Z,49.42
2024-03-07T13:34:14.248Z,50.34
2024-03-07T13:36:47.327Z,51.09
2024-03-07T13:39:20.062Z,51.66
2024-03-07T13:41:53.354Z,51.77
2024-03-07T13:44:26.330Z,51.05
2024-03-07T13:47:01.082Z,50.24
2024-03-07T13:49:35.320Z,49.35
2024-03-07T13:52:19.660Z,49.21
2024-03-07T13:54:55.975Z,49.62
2024-03-07T13:57:41.472Z,49.57
2024-03-07T14:00:35.907Z,50.30
2024-03-07T14:03:41.359Z,51.13
2024-03-07T14:06:23.656Z,50.85
2024-03-07T14:09:40.769Z,51.31
2024-03-07T14:12:47.396Z,51.26
2024-03-07T14:15:59.309Z,52.06
2024-03-07T14:19:05.272Z,50.90
2024-03-07T14:22:05.779Z,50.57
2024-03-07T14:25:07.883Z,50.54
2024-03-07T14:27:50.423Z,50.71
2024-03-07T14:30:41.756Z,51.44
2024-03-07T14:33:18.393Z,50.95
2024-03-07T14:36:07.614Z,50.07
2024-03-07T14:38:53.763Z,50.80
2024-03-07T14:41:42.776Z,51.90
2024-03-07T14:44:16.932Z,51.44
2024-03-07T14:46:55.182Z,51.99
2024-03-07T14:49:27.529Z,50.58
2024-03-07T14:52:01.423Z,51.43
2024-03-07T14:54:34.291Z,51.58
2024-03-07T14:57:08.757Z,51.66
2024-03-07T14:59:42.096Z,51.50
2024-03-07T15:02:16.494Z,51.75
2024-03-07T15:04:48.514Z,52.03
2024-03-07T15:07:23.466Z,53.19
2024-03-07T15:09:58.842Z,52.86
2024-03-07T15:12:30.761Z,53.78
2024-03-07T15:15:10.976Z,53.46
2024-03-07T15:17:46.693Z,53.48
2024-03-07T15:20:24.392Z,54.05
2024-03-07T15:22:58.361Z,54.11
2024-03-07T15:25:31.169Z,53.66
2024-03-07T15:28:02.668Z,53.33
2024-03-07T15:30:36.356Z,53.39
2024-03-07T15:33:09.145Z,54.34
2024-03-07T15:35:41.263Z,53.83
2024-03-07T15:38:15.202Z,53.52
2024-03-07T15:40:47.133Z,54.25
2024-03-07T15:43:20.169Z,54.49
2024-03-07T15:45:53.533Z,54.50
2024-03-07T15:48:26.184Z,55.13
2024-03-07T15:50:58.808Z,55.32
2024-03-07T15:53:30.929Z,55.55
2024-03-07T15:56:03.036Z,56.15
2024-03-07T15:58:35.006Z,56.57
2024-03-07T16:01:07.586Z,56.35
2024-03-07T16:03:40.203Z,55.79
2024-03-07T16:06:12.208Z,56.38
2024-03-07T16:08:45.372Z,56.94
2024-03-07T16:11:25.451Z,56.54
2024-03-07T16:13:57.551Z,56.85
2024-03-07T16:16:29.395Z,57.06
2024-03-07T16:19:01.445Z,57.13
2024-03-07T16:21:33.501Z,57.37
2024-03-07T16:24:07.369Z,57.37
2024-03-07T16:26:39.347Z,57.68
2024-03-07T16:29:12.723Z,58.14
2024-03-07T16:31:45.665Z,58.39
2024-03-07T16:34:18.539Z,58.68
2024-03-07T16:36:53.481Z,58.95
2024-03-07T16:39:26.230Z,59.23
2024-03-07T16:41:56.964Z,59.97
2024-03-07T16:44:29.316Z,60.17
2024-03-07T16:47:02.781Z,59.67
2024-03-07T16:49:36.147Z,60.76
2024-03-07T16:52:10.276Z,60.86
2024-03-07T16:54:43.165Z,63.03
2024-03-07T16:57:16.326Z,62.74
2024-03-07T16:59:51.510Z,62.32
2024-03-07T17:02:27.592Z,62.97
2024-03-07T17:05:00.395Z,64.98
2024-03-07T17:07:32.534Z,64.20
2024-03-07T17:10:07.401Z,64.83
2024-03-07T17:12:39.805Z,65.27
2024-03-07T17:15:15.704Z,65.83
2024-03-07T17:17:50.031Z,66.39
2024-03-07T17:20:25.783Z,66.23
2024-03-07T17:22:59.954Z,66.14
2024-03-07T17:25:32.481Z,65.58
2024-03-07T17:28:04.912Z,67.05
2024-03-07T17:30:37.446Z,67.18
2024-03-07T17:33:10.002Z,67.45
2024-03-07T17:35:43.846Z,68.26
2024-03-07T17:38:16.218Z,68.49
2024-03-07T17:40:48.189Z,67.58
2024-03-07T17:43:20.063Z,66.49
2024-03-07T17:45:51.925Z,68.03
2024-03-07T17:48:26.825Z,68.17
2024-03-07T17:51:03.062Z,67.69
2024-03-07T17:53:35.113Z,67.70
2024-03-07T17:56:07.619Z,69.17
2024-03-07T17:58:39.605Z,68.99
2024-03-07T18:01:15.654Z,68.06
2024-03-07T18:03:48.307Z,69.45
2024-03-07T18:06:23.226Z,70.02
2024-03-07T18:09:00.601Z,69.72
2024-03-07T18:11:34.250Z,69.72
2024-03-07T18:14:06.684Z,70.13
2024-03-07T18:16:38.753Z,71.92
2024-03-07T18:19:11.209Z,72.96
2024-03-07T18:21:43.167Z,73.61
2024-03-07T18:24:16.018Z,74.08
2024-03-07T18:26:48.647Z,73.24
2024-03-07T18:29:21.421Z,72.70
2024-03-07T18:31:55.020Z,72.21
2024-03-07T18:34:26.913Z,72.15
2024-03-07T18:37:03.979Z,72.81
2024-03-07T18:39:37.294Z,72.83
2024-03-07T18:42:09.357Z,72.09
2024-03-07T18:44:41.763Z,71.56
2024-03-07T18:47:19.207Z,71.90
2024-03-07T18:49:52.120Z,72.28
2024-03-07T18:52:24.637Z,72.86
2024-03-07T18:54:57.942Z,72.82
2024-03-07T18:57:29.943Z,73.56
2024-03-07T19:00:05.710Z,74.40
2024-03-07T19:02:37.732Z,75.07
2024-03-07T19:05:13.705Z,74.92
2024-03-07T19:07:46.698Z,74.76
2024-03-07T19:10:19.475Z,74.08
2024-03-07T19:12:49.817Z,77.07
2024-03-07T19:15:44.142Z,75.29
2024-03-07T19:18:17.691Z,74.92
2024-03-07T19:20:50.857Z,75.36
2024-03-07T19:23:22.781Z,75.86
2024-03-07T19:25:56.300Z,75.98
2024-03-07T19:28:29.299Z,76.40
2024-03-07T19:31:01.632Z,76.70
2024-03-07T19:33:35.338Z,75.96
2024-03-07T19:36:14.599Z,76.07
2024-03-07T19:38:50.259Z,76.47
2024-03-07T19:41:24.311Z,77.44
2024-03-07T19:43:56.368Z,78.02
2024-03-07T19:46:29.327Z,77.67
2024-03-07T19:49:02.098Z,77.47
2024-03-07T19:51:34.485Z,77.59
2024-03-07T19:54:10.224Z,77.60
2024-03-07T19:56:42.988Z,79.97
2024-03-07T19:59:14.809Z,80.87
2024-03-07T20:01:47.430Z,81.41
2024-03-07T20:04:17.866Z,80.61
2024-03-07T20:06:49.780Z,80.26
2024-03-07T20:09:22.064Z,79.48
2024-03-07T20:11:55.397Z,79.98
2024-03-07T20:14:27.562Z,78.84
2024-03-07T20:16:59.550Z,80.18
2024-03-07T20:19:31.636Z,81.11
2024-03-07T20:22:03.544Z,81.84
2024-03-07T20:24:36.297Z,82.06
2024-03-07T20:27:06.806Z,81.05
2024-03-07T20:29:39.777Z,80.32
2024-03-07T20:32:11.820Z,80.18
2024-03-07T20:34:43.802Z,79.73
2024-03-07T20:37:15.747Z,80.83
2024-03-07T20:39:58.103Z,80.79
2024-03-07T20:42:38.659Z,80.97
2024-03-07T20:45:12.644Z,80.79
2024-03-07T20:47:46.434Z,80.64
2024-03-07T20:50:21.316Z,79.98
2024-03-07T20:52:54.557Z,81.39
2024-03-07T20:55:28.336Z,80.89
2024-03-07T20:58:02.452Z,81.70
2024-03-07T21:00:34.673Z,81.60
2024-03-07T21:03:07.864Z,80.75
2024-03-07T21:05:43.606Z,80.99
2024-03-07T21:08:17.244Z,81.76
2024-03-07T21:10:49.626Z,81.22
2024-03-07T21:13:22.469Z,81.26
2024-03-07T21:15:53.024Z,82.26
2024-03-07T21:18:26.290Z,82.54
2024-03-07T21:20:58.590Z,83.11
2024-03-07T21:23:30.637Z,82.69
2024-03-07T21:26:02.784Z,82.11
2024-03-07T21:28:34.627Z,82.51
2024-03-07T21:31:07.414Z,83.15
2024-03-07T21:33:40.499Z,82.88
2024-03-07T21:36:13.061Z,82.36
2024-03-07T21:38:45.414Z,82.79
2024-03-07T21:41:17.342Z,83.23
2024-03-07T21:43:49.179Z,82.72
2024-03-07T21:46:22.139Z,83.20
2024-03-07T21:48:57.204Z,82.76
2024-03-07T21:51:31.919Z,81.85
2024-03-07T21:54:05.073Z,83.47
2024-03-07T21:56:37.044Z,84.57
2024-03-07T21:59:10.174Z,83.53
2024-03-07T22:01:45.069Z,82.47
2024-03-07T22:04:16.860Z,82.66
2024-03-07T22:06:48.640Z,82.37
2024-03-07T22:09:20.560Z,82.79
2024-03-07T22:11:52.773Z,82.97
2024-03-07T22:14:24.729Z,83.53
2024-03-07T22:16:57.547Z,84.16
2024-03-07T22:19:29.449Z,84.88
2024-03-07T22:22:01.350Z,85.03
2024-03-07T22:24:33.366Z,84.69
2024-03-07T22:27:06.081Z,84.34
2024-03-07T22:29:38.204Z,84.46
2024-03-07T22:32:10.155Z,84.88
2024-03-07T22:34:43.799Z,85.38
2024-03-07T22:37:16.956Z,85.48
2024-03-07T22:39:49.919Z,85.98
2024-03-07T22:42:21.721Z,85.69
2024-03-07T22:44:53.701Z,85.82
2024-03-07T22:47:26.416Z,84.90
2024-03-07T22:50:05.482Z,85.30
2024-03-07T22:52:45.391Z,85.77
2024-03-07T22:55:18.452Z,86.08
2024-03-07T22:57:50.232Z,86.05
2024-03-07T23:00:25.527Z,86.03
2024-03-07T23:02:59.900Z,86.54
2024-03-07T23:05:33.351Z,86.96
2024-03-07T23:08:05.443Z,86.83
2024-03-07T23:10:37.517Z,86.71
2024-03-07T23:13:09.467Z,86.70
2024-03-07T23:15:41.464Z,86.66
2024-03-07T23:18:13.428Z,86.87
2024-03-07T23:20:47.294Z,87.05
2024-03-07T23:23:19.137Z,87.26
2024-03-07T23:25:51.066Z,86.86
2024-03-07T23:28:23.097Z,86.96
2024-03-07T23:30:55.011Z,86.91
2024-03-07T23:33:27.972Z,87.44
2024-03-07T23:36:01.735Z,87.57
2024-03-07T23:38:33.935Z,88.43
2024-03-07T23:41:06.851Z,88.76
2024-03-07T23:43:39.007Z,89.11
2024-03-07T23:46:13.890Z,89.05
2024-03-07T23:48:45.844Z,88.93
2024-03-07T23:51:19.703Z,88.49
2024-03-07T23:53:52.832Z,88.27
2024-03-07T23:56:24.675Z,88.15
2024-03-07T23:58:56.846Z,87.62
